KIAD

Washington Dulles International Airport

Washington, Virginia, USA
METAR KIAD 162252Z 19006KT 10SM FEW120 03/M05 A3011 RMK AO2 SLP199 T00281050
Observed Flight Rules
Dec-16 @ 22:52 UTC (an hour ago) Visual Flight Rules
Wind Visibility Clouds
190° at 6 knots 10 miles
  • Few at 12,000' AGL
Temperatures Readings
Current 3°C / 37°F
Dewpoint -5°C / 23°F
Humidity 56%
Altimeter 30.11" Hg
Pressure 1019.9 hPa
Elevation 93
METAR KIAD 162252Z 19006KT 10SM FEW120 03/M05 A3011 RMK AO2 SLP199 T00281050
Observed Flight Rules
Dec-16 @ 22:52 UTC
(an hour ago)
VFR
Wind Visibility
190° at 6 knots 10 miles
Clouds
  • Few at 12,000' AGL
Temperature Dewpoint
3°C / 37°F -5°C / 23°F
Humidity Altimeter Pressure
56% 30.11" Hg 1019.9 hPa